createdAt,value
2022-11-15T00:07:55.245Z,16.80
2022-11-15T00:13:06.412Z,16.20
2022-11-15T00:18:16.966Z,17.80
2022-11-15T00:23:24.630Z,17.10
2022-11-15T00:28:32.544Z,18.00
2022-11-15T00:33:39.739Z,15.80
2022-11-15T00:43:52.415Z,15.90
2022-11-15T00:48:59.721Z,16.70
2022-11-15T00:54:07.238Z,17.70
2022-11-15T00:59:14.634Z,19.20
2022-11-15T01:04:21.948Z,19.20
2022-11-15T01:09:29.245Z,20.70
2022-11-15T01:14:36.176Z,20.40
2022-11-15T01:19:43.369Z,21.40
2022-11-15T01:29:55.899Z,21.00
2022-11-15T01:40:10.334Z,14.00
2022-11-15T01:45:19.067Z,19.90
2022-11-15T01:50:29.995Z,17.80
2022-11-15T01:55:37.305Z,16.10
2022-11-15T02:00:44.681Z,14.00
2022-11-15T02:05:52.595Z,15.20
2022-11-15T02:10:59.613Z,16.80
2022-11-15T02:16:15.812Z,17.10
2022-11-15T02:21:30.612Z,18.40
2022-11-15T02:27:02.987Z,17.90
2022-11-15T02:32:17.243Z,19.40
2022-11-15T02:37:33.320Z,19.40
2022-11-15T02:43:08.274Z,19.70
2022-11-15T02:48:17.021Z,18.80
2022-11-15T02:53:27.876Z,17.80
2022-11-15T02:58:50.874Z,14.90
2022-11-15T03:04:09.244Z,17.50
2022-11-15T03:09:26.566Z,15.90
2022-11-15T03:14:37.886Z,15.10
2022-11-15T03:19:49.367Z,13.80
2022-11-15T03:25:00.058Z,11.90
2022-11-15T03:30:10.531Z,12.80
2022-11-15T03:35:21.114Z,13.00
2022-11-15T03:40:36.924Z,11.80
2022-11-15T03:45:49.002Z,13.50
2022-11-15T03:50:57.400Z,11.90
2022-11-15T03:56:04.472Z,12.90
2022-11-15T04:01:11.545Z,11.50
2022-11-15T04:11:24.097Z,10.90
2022-11-15T04:16:31.157Z,12.20
2022-11-15T04:27:01.528Z,11.40
2022-11-15T04:32:09.650Z,13.20
2022-11-15T04:37:17.280Z,11.30
2022-11-15T04:42:24.269Z,11.30
2022-11-15T04:47:31.790Z,11.70
2022-11-15T04:52:38.861Z,11.80
2022-11-15T04:57:45.996Z,11.90
2022-11-15T05:03:10.601Z,12.50
2022-11-15T05:08:17.497Z,12.60
2022-11-15T05:13:24.607Z,12.70
2022-11-15T05:23:37.360Z,10.60
2022-11-15T05:28:44.667Z,10.40
2022-11-15T05:33:53.443Z,12.70
2022-11-15T05:39:00.851Z,13.40
2022-11-15T05:44:11.611Z,13.20
2022-11-15T05:49:22.334Z,12.60
2022-11-15T05:54:29.889Z,12.10
2022-11-15T05:59:38.244Z,11.20
2022-11-15T06:04:45.110Z,12.30
2022-11-15T06:09:52.142Z,11.50
2022-11-15T06:14:59.181Z,13.20
2022-11-15T06:20:07.272Z,12.10
2022-11-15T06:25:14.170Z,12.10
2022-11-15T06:30:21.469Z,12.60
2022-11-15T06:35:28.677Z,12.60
2022-11-15T06:45:41.953Z,12.20
2022-11-15T06:50:54.696Z,12.50
2022-11-15T06:56:04.149Z,12.70
2022-11-15T07:01:13.468Z,15.70
2022-11-15T07:06:20.596Z,14.10
2022-11-15T07:11:27.498Z,14.30
2022-11-15T07:16:34.811Z,15.10
2022-11-15T07:21:42.011Z,17.20
2022-11-15T07:31:54.792Z,18.70
2022-11-15T07:42:25.811Z,20.00
2022-11-15T07:47:33.628Z,20.00
2022-11-15T07:52:41.671Z,20.00
2022-11-15T07:57:48.729Z,19.70
2022-11-15T08:03:03.232Z,13.60
2022-11-15T08:08:11.523Z,22.40
2022-11-15T08:13:21.487Z,21.10
2022-11-15T08:18:28.597Z,20.90
2022-11-15T08:23:35.877Z,21.80
2022-11-15T08:28:43.206Z,19.90
2022-11-15T08:38:56.391Z,18.40
2022-11-15T08:44:03.806Z,20.20
2022-11-15T08:49:11.652Z,17.60
2022-11-15T08:54:18.624Z,21.10
2022-11-15T09:04:32.226Z,20.10
2022-11-15T09:09:39.719Z,15.30
2022-11-15T09:14:46.649Z,16.50
2022-11-15T09:19:53.572Z,19.30
2022-11-15T09:25:00.595Z,14.20
2022-11-15T09:35:15.462Z,19.30
2022-11-15T09:40:24.425Z,18.10
2022-11-15T09:45:37.359Z,15.90
2022-11-15T09:50:51.908Z,18.00
2022-11-15T09:56:03.195Z,17.90
2022-11-15T10:01:17.138Z,17.60
2022-11-15T10:06:27.703Z,21.60
2022-11-15T10:11:39.165Z,22.90
2022-11-15T10:17:12.032Z,18.80
2022-11-15T10:22:30.626Z,23.50
2022-11-15T10:27:37.813Z,25.40
2022-11-15T10:32:47.250Z,20.20
2022-11-15T10:37:54.200Z,23.80
2022-11-15T10:43:16.147Z,21.80
2022-11-15T10:48:28.085Z,21.00
2022-11-15T10:53:44.211Z,20.00
2022-11-15T10:58:57.944Z,19.40
2022-11-15T11:04:07.594Z,21.40
2022-11-15T11:09:30.253Z,20.70
2022-11-15T11:14:39.547Z,19.40
2022-11-15T11:25:30.719Z,16.80
2022-11-15T11:30:50.397Z,17.70
2022-11-15T11:36:08.398Z,16.90
2022-11-15T11:41:22.590Z,17.60
2022-11-15T11:46:50.774Z,17.30
2022-11-15T11:52:04.690Z,18.00
2022-11-15T11:57:19.756Z,17.50
2022-11-15T12:02:33.956Z,17.00
2022-11-15T12:07:43.130Z,17.40
2022-11-15T12:12:56.618Z,20.70
2022-11-15T12:18:04.570Z,15.80
2022-11-15T12:23:17.839Z,17.40
2022-11-15T12:28:38.076Z,15.20
2022-11-15T12:33:48.475Z,17.20
2022-11-15T12:39:00.251Z,16.70
2022-11-15T12:44:13.269Z,18.80
2022-11-15T12:49:47.537Z,20.30
2022-11-15T12:54:58.086Z,18.00
2022-11-15T13:00:28.559Z,19.80
2022-11-15T13:06:13.330Z,18.10
2022-11-15T13:11:50.468Z,21.10
2022-11-15T13:17:02.059Z,20.10
2022-11-15T13:22:31.097Z,22.50
2022-11-15T13:27:38.459Z,24.70
2022-11-15T13:32:45.786Z,24.30
2022-11-15T13:37:54.662Z,22.40
2022-11-15T13:43:02.118Z,23.40
2022-11-15T13:48:12.227Z,24.00
2022-11-15T13:53:19.696Z,24.30
2022-11-15T13:58:26.991Z,23.90
2022-11-15T14:03:36.356Z,20.30
2022-11-15T14:08:45.158Z,25.20
2022-11-15T14:14:14.332Z,21.10
2022-11-15T14:19:42.287Z,24.40
2022-11-15T14:25:06.867Z,24.40
2022-11-15T14:30:19.063Z,24.40
2022-11-15T14:35:27.244Z,24.70
2022-11-15T14:40:34.514Z,27.60
2022-11-15T14:45:42.621Z,23.60
2022-11-15T14:50:50.384Z,25.90
2022-11-15T14:55:57.448Z,26.60
2022-11-15T15:06:17.879Z,26.30
2022-11-15T15:11:28.388Z,27.60
2022-11-15T15:16:35.788Z,27.20
2022-11-15T15:21:43.502Z,27.40
2022-11-15T15:26:51.078Z,25.90
2022-11-15T15:31:58.501Z,25.40
2022-11-15T15:37:23.856Z,27.50
2022-11-15T15:42:31.030Z,26.20
2022-11-15T15:52:43.790Z,14.50
2022-11-15T15:57:51.668Z,23.90
2022-11-15T16:02:59.671Z,26.40
2022-11-15T16:08:07.542Z,26.40
2022-11-15T16:13:14.870Z,25.80
2022-11-15T16:18:22.462Z,27.60
2022-11-15T16:23:29.752Z,21.90
2022-11-15T16:28:37.863Z,22.40
2022-11-15T16:33:46.298Z,25.60
2022-11-15T16:38:54.545Z,26.30
2022-11-15T16:44:02.160Z,26.10
2022-11-15T16:49:14.932Z,26.20
2022-11-15T16:54:22.062Z,25.60
2022-11-15T16:59:33.189Z,22.30
2022-11-15T17:04:43.422Z,26.50
2022-11-15T17:09:50.960Z,27.80
2022-11-15T17:14:58.254Z,26.20
2022-11-15T17:20:10.351Z,26.70
2022-11-15T17:25:18.196Z,26.50
2022-11-15T17:30:25.613Z,24.90
2022-11-15T17:35:33.364Z,27.80
2022-11-15T17:40:40.914Z,26.90
2022-11-15T17:45:48.324Z,28.80
2022-11-15T17:51:03.017Z,30.40
2022-11-15T17:56:12.554Z,28.50
2022-11-15T18:01:22.722Z,25.40
2022-11-15T18:06:32.276Z,27.20
2022-11-15T18:11:41.481Z,28.30
2022-11-15T18:16:49.214Z,33.30
2022-11-15T18:22:01.137Z,30.10
2022-11-15T18:27:12.846Z,31.10
2022-11-15T18:32:20.252Z,31.30
2022-11-15T18:37:27.951Z,32.80
2022-11-15T18:42:35.557Z,30.70
2022-11-15T18:47:43.101Z,29.90
2022-11-15T18:57:56.132Z,29.10
2022-11-15T19:03:03.940Z,28.80
2022-11-15T19:08:12.022Z,30.40
2022-11-15T19:13:20.108Z,32.10
2022-11-15T19:18:27.701Z,30.90
2022-11-15T19:23:38.972Z,32.00
2022-11-15T19:28:46.676Z,30.40
2022-11-15T19:33:55.156Z,31.30
2022-11-15T19:39:08.735Z,31.80
2022-11-15T19:44:16.560Z,30.20
2022-11-15T19:49:24.081Z,32.80
2022-11-15T19:54:31.270Z,28.50
2022-11-15T20:04:43.878Z,31.50
2022-11-15T20:09:51.159Z,30.30
2022-11-15T20:14:58.783Z,32.20
2022-11-15T20:20:07.224Z,31.60
2022-11-15T20:25:16.365Z,36.60
2022-11-15T20:30:23.667Z,32.70
2022-11-15T20:35:31.998Z,34.30
2022-11-15T20:40:39.902Z,34.30
2022-11-15T20:45:48.847Z,32.90
2022-11-15T20:51:07.489Z,35.00
2022-11-15T20:56:18.183Z,42.50
2022-11-15T21:01:26.550Z,45.90
2022-11-15T21:06:34.088Z,37.70
2022-11-15T21:12:00.113Z,43.70
2022-11-15T21:17:07.368Z,40.80
2022-11-15T21:22:16.633Z,41.40
2022-11-15T21:27:23.849Z,40.40
2022-11-15T21:32:31.313Z,39.80
2022-11-15T21:37:39.210Z,47.50
2022-11-15T21:42:46.745Z,39.70
2022-11-15T21:47:54.571Z,55.10
2022-11-15T21:53:01.918Z,55.40
2022-11-15T21:58:09.435Z,55.50
2022-11-15T22:03:16.687Z,53.10
2022-11-15T22:13:29.571Z,51.50
2022-11-15T22:18:36.947Z,54.60
2022-11-15T22:23:46.308Z,53.30
2022-11-15T22:28:53.850Z,53.60
2022-11-15T22:34:00.918Z,47.70
2022-11-15T22:39:08.231Z,45.70
2022-11-15T22:44:15.460Z,54.10
2022-11-15T22:49:22.651Z,58.00
2022-11-15T23:00:12.182Z,47.40
2022-11-15T23:05:19.525Z,47.10
2022-11-15T23:10:44.840Z,54.20
2022-11-15T23:16:11.802Z,53.70
2022-11-15T23:21:42.974Z,53.70
2022-11-15T23:26:52.126Z,49.60
2022-11-15T23:32:17.855Z,48.00
2022-11-15T23:37:25.163Z,50.80
2022-11-15T23:42:32.392Z,53.20
2022-11-15T23:47:39.455Z,51.80
2022-11-15T23:57:52.738Z,50.80
